Snav Lazio — IBUH — position and weather

sailwx.info

Track history (hours):
 
Tides and Currents Weather Stations Pressure Air Temp Water Temp Dewpoint Dewpoint Depression Visibility Wind Speed Wind Dir Waves Ship Positions

Snav Lazio

Last reported at 2015-Jul-02 17:32 UTC. Time now 2015-Jul-02 18:16 UTC.
Position N 38°08' E 013°22'.

Length 162 m; draft 6 m.

Type: Passenger vessel. MMSI: 247163100.

Date/timePositionNaut miles runAvg speedWind from/ knotsBaromVisibWave heightAir tempDewpointWater temp
2015-Jul-02 17:32N 38°08' E 013°22'0 0.0
2015-Jul-02 16:31N 38°08' E 013°22'0 0.0
2015-Jul-02 15:31N 38°08' E 013°22'0 0.0
2015-Jul-02 14:28N 38°08' E 013°22'0 0.0
2015-Jul-02 13:31N 38°08' E 013°22'0 0.0
2015-Jul-02 12:31N 38°08' E 013°22'0 0.0
2015-Jul-02 11:31N 38°08' E 013°22'0 0.0
2015-Jul-02 10:22N 38°08' E 013°22'0 0.0
2015-Jul-02 09:25N 38°08' E 013°22'0 0.0
2015-Jul-02 08:25N 38°08' E 013°22'0 0.0
2015-Jul-02 07:25N 38°08' E 013°22'0 0.0
2015-Jul-02 06:25N 38°08' E 013°22'0 0.0
2015-Jul-02 05:28N 38°08' E 013°22'5 6.0
2015-Jul-02 04:33N 38°13' E 013°25'1716.2
2015-Jul-02 03:32N 38°29' E 013°30'1716.1
2015-Jul-02 02:30N 38°45' E 013°35'1616.4
2015-Jul-02 01:33N 39°00' E 013°40'1716.9
2015-Jul-02 00:33N 39°17' E 013°45'1716.9
2015-Jul-01 23:33N 39°33' E 013°50'1716.9
2015-Jul-01 22:34N 39°49' E 013°55'1717.0
2015-Jul-01 21:33N 40°06' E 013°59'1717.0
2015-Jul-01 20:34N 40°23' E 014°04'1717.0
2015-Jul-01 19:33N 40°39' E 014°11'12 1.7
2015-Jul-01 12:25N 40°50' E 014°16'0 0.0
2015-Jul-01 11:31N 40°50' E 014°16'0 0.0
2015-Jul-01 10:28N 40°50' E 014°16'0 0.0
2015-Jul-01 09:25N 40°50' E 014°16'1 0.1
2015-Jul-01 04:32N 40°50' E 014°16'1414.5
2015-Jul-01 03:33N 40°37' E 014°10'1717.5
2015-Jul-01 02:33N 40°20' E 014°03'1717.3
2015-Jul-01 01:33N 40°03' E 013°58'1717.0
2015-Jul-01 00:33N 39°47' E 013°53'1717.3
2015-Jun-30 23:33N 39°30' E 013°48'3617.0
2015-Jun-30 21:27N 38°55' E 013°40'1517.4
2015-Jun-30 20:33N 38°40' E 013°35'1817.6
2015-Jun-30 19:33N 38°23' E 013°29'1616.1
2015-Jun-30 18:33N 38°07' E 013°23'1 1.3
2015-Jun-30 17:31N 38°08' E 013°22'0 0.0
2015-Jun-30 16:31N 38°08' E 013°22'0 0.0
2015-Jun-30 15:31N 38°08' E 013°22'0 0.0
2015-Jun-30 14:31N 38°08' E 013°22'0 0.0
2015-Jun-30 13:31N 38°08' E 013°22'0 0.0
2015-Jun-30 12:22N 38°08' E 013°22'0 0.0
2015-Jun-30 11:22N 38°08' E 013°22'0 0.0
2015-Jun-30 10:25N 38°08' E 013°22'0 0.0
2015-Jun-30 09:25N 38°08' E 013°22'0 0.0
2015-Jun-30 08:10N 38°08' E 013°22'0 0.0
2015-Jun-30 07:28N 38°08' E 013°22'0 0.0
2015-Jun-30 06:28N 38°08' E 013°22'0 0.0
2015-Jun-30 05:28N 38°08' E 013°22'2 1.7
2015-Jun-30 04:33N 38°08' E 013°24'1514.9
2015-Jun-30 03:33N 38°22' E 013°28'1716.5
2015-Jun-30 02:33N 38°38' E 013°34'3416.9
2015-Jun-30 00:33N 39°11' E 013°44'1717.5
2015-Jun-29 23:34N 39°28' E 013°49'1717.3
2015-Jun-29 22:33N 39°45' E 013°53'1717.5
2015-Jun-29 21:33N 40°02' E 013°58'1817.9
2015-Jun-29 20:34N 40°20' E 014°04'1817.5
2015-Jun-29 19:33N 40°37' E 014°09'15 1.0
2015-Jun-29 04:24N 40°50' E 014°16'1113.0
2015-Jun-29 03:33N 40°40' E 014°12'1717.2
2015-Jun-29 02:33N 40°24' E 014°04'1716.9
2015-Jun-29 01:33N 40°07' E 013°59'5217.0
2015-Jun-28 22:29N 39°16' E 013°45'1617.3
2015-Jun-28 21:34N 39°00' E 013°40'1817.6
2015-Jun-28 20:33N 38°43' E 013°36'1817.7
2015-Jun-28 19:33N 38°26' E 013°30'1717.4
2015-Jun-28 18:33N 38°09' E 013°26'3 3.0
2015-Jun-28 17:32N 38°08' E 013°22'0 0.0
2015-Jun-28 16:29N 38°08' E 013°22'0 0.0
2015-Jun-28 15:32N 38°08' E 013°22'0 0.0
2015-Jun-28 14:32N 38°08' E 013°22'0 0.0
2015-Jun-28 13:32N 38°08' E 013°22'0 0.0
2015-Jun-28 12:32N 38°08' E 013°22'0 0.0
2015-Jun-28 11:32N 38°08' E 013°22'0 0.0
2015-Jun-28 10:32N 38°08' E 013°22'0 0.0
2015-Jun-28 09:32N 38°08' E 013°22'0 0.0
2015-Jun-28 08:32N 38°08' E 013°22'0 0.0
2015-Jun-28 07:32N 38°08' E 013°22'0 0.0
2015-Jun-28 06:32N 38°08' E 013°22'0 0.0
2015-Jun-28 05:32N 38°08' E 013°22'1 1.4
2015-Jun-28 04:33N 38°07' E 013°23'1615.8
2015-Jun-28 03:34N 38°23' E 013°28'1716.5
2015-Jun-28 02:34N 38°39' E 013°33'3416.9
2015-Jun-28 00:33N 39°12' E 013°42'1717.0
2015-Jun-27 23:34N 39°28' E 013°47'1717.0
2015-Jun-27 22:33N 39°45' E 013°53'1717.2
2015-Jun-27 21:33N 40°01' E 013°58'1717.2
2015-Jun-27 20:34N 40°18' E 014°03'1717.0
2015-Jun-27 19:34N 40°35' E 014°07'1716.6
2015-Jun-27 18:33N 40°50' E 014°17'69 3.7
2015-Jun-27 00:06N 39°43' E 013°53'917.0
2015-Jun-26 23:33N 39°34' E 013°50'1817.0
2015-Jun-26 22:30N 39°17' E 013°45'3717.1
2015-Jun-26 20:21N 38°41' E 013°35'1417.3
2015-Jun-26 19:33N 38°27' E 013°31'1716.8
2015-Jun-26 18:33N 38°11' E 013°26'4 4.1
2015-Jun-26 17:28N 38°08' E 013°22'0 0.0
2015-Jun-26 16:31N 38°08' E 013°22'0 0.0
2015-Jun-26 15:31N 38°08' E 013°22'0 0.0
2015-Jun-26 14:31N 38°08' E 013°22'0 0.0
2015-Jun-26 13:31N 38°08' E 013°22'0 0.0
2015-Jun-26 12:31N 38°08' E 013°22'0 0.0
2015-Jun-26 11:31N 38°08' E 013°22'0 0.0
2015-Jun-26 10:31N 38°08' E 013°22'0 0.0
2015-Jun-26 09:31N 38°08' E 013°22'0 0.0
2015-Jun-26 08:31N 38°08' E 013°22'0 0.0
2015-Jun-26 07:31N 38°08' E 013°22'0 0.0
2015-Jun-26 06:31N 38°08' E 013°22'0 0.0
2015-Jun-26 05:33N 38°08' E 013°22'3 3.4
2015-Jun-26 04:34N 38°11' E 013°25'1716.7
2015-Jun-26 03:33N 38°27' E 013°30'1716.5
2015-Jun-26 02:33N 38°43' E 013°35'3516.6
2015-Jun-26 00:26N 39°17' E 013°45'5217.0
2015-Jun-25 21:25N 40°08' E 013°60'1517.8
2015-Jun-25 20:33N 40°22' E 014°04'1717.4
2015-Jun-25 19:33N 40°39' E 014°11'8 0.5
2015-Jun-25 04:33N 40°46' E 014°16'1616.0
2015-Jun-25 03:33N 40°32' E 014°07'1615.6
2015-Jun-25 02:33N 40°17' E 014°02'9916.4
2015-Jun-24 20:33N 38°40' E 013°35'1717.3
2015-Jun-24 19:33N 38°23' E 013°30'1515.1
2015-Jun-24 18:33N 38°09' E 013°25'3 2.8
2015-Jun-24 17:33N 38°08' E 013°22'0 0.0
2015-Jun-24 16:33N 38°08' E 013°22'0 0.0
2015-Jun-24 15:33N 38°08' E 013°22'0 0.0
2015-Jun-24 14:33N 38°08' E 013°22'0 0.0
2015-Jun-24 13:33N 38°08' E 013°22'0 0.0
2015-Jun-24 12:33N 38°08' E 013°22'0 0.0
2015-Jun-24 11:33N 38°08' E 013°22'0 0.0
2015-Jun-24 10:33N 38°08' E 013°22'0 0.0
2015-Jun-24 09:33N 38°08' E 013°22'0 0.0
2015-Jun-24 08:33N 38°08' E 013°22'0 0.0
2015-Jun-24 07:33N 38°08' E 013°22'0 0.0
2015-Jun-24 06:33N 38°08' E 013°22'0 0.0
2015-Jun-24 05:33N 38°08' E 013°22'7 7.3
2015-Jun-24 04:34N 38°15' E 013°26'1616.5
2015-Jun-24 03:34N 38°31' E 013°31'1616.1
2015-Jun-24 02:34N 38°46' E 013°36'1616.2
2015-Jun-24 01:34N 39°02' E 013°40'1616.2
2015-Jun-24 00:34N 39°18' E 013°44'1616.2
2015-Jun-23 23:33N 39°34' E 013°48'1615.7
2015-Jun-23 22:34N 39°49' E 013°54'1616.3
2015-Jun-23 21:34N 40°05' E 013°59'1616.5
2015-Jun-23 20:34N 40°21' E 014°04'1716.6
2015-Jun-23 19:34N 40°37' E 014°09'816.5
2015-Jun-23 19:06N 40°44' E 014°13'143 6.1
2015-Jun-22 19:33N 38°25' E 013°30'1716.9
2015-Jun-22 18:33N 38°08' E 013°25'3 2.5
2015-Jun-22 17:32N 38°08' E 013°22'  
Track history (hours):
 
Tides and Currents Weather Stations Pressure Air Temp Water Temp Dewpoint Dewpoint Depression Visibility Wind Speed Wind Dir Waves Ship Positions

Snav Lazio

Last reported at 2015-Jul-02 17:32 UTC. Time now 2015-Jul-02 18:16 UTC.
Position N 38°08' E 013°22'.

Length 162 m; draft 6 m.

Type: Passenger vessel. MMSI: 247163100.

Date/timePositionNaut miles runAvg speedWind from/ knotsBaromVisibWave heightAir tempDewpointWater temp
2015-Jul-02 17:32N 38°08' E 013°22'0 0.0
2015-Jul-02 16:31N 38°08' E 013°22'0 0.0
2015-Jul-02 15:31N 38°08' E 013°22'0 0.0
2015-Jul-02 14:28N 38°08' E 013°22'0 0.0
2015-Jul-02 13:31N 38°08' E 013°22'0 0.0
2015-Jul-02 12:31N 38°08' E 013°22'0 0.0
2015-Jul-02 11:31N 38°08' E 013°22'0 0.0
2015-Jul-02 10:22N 38°08' E 013°22'0 0.0
2015-Jul-02 09:25N 38°08' E 013°22'0 0.0
2015-Jul-02 08:25N 38°08' E 013°22'0 0.0
2015-Jul-02 07:25N 38°08' E 013°22'0 0.0
2015-Jul-02 06:25N 38°08' E 013°22'0 0.0
2015-Jul-02 05:28N 38°08' E 013°22'5 6.0
2015-Jul-02 04:33N 38°13' E 013°25'1716.2
2015-Jul-02 03:32N 38°29' E 013°30'1716.1
2015-Jul-02 02:30N 38°45' E 013°35'1616.4
2015-Jul-02 01:33N 39°00' E 013°40'1716.9
2015-Jul-02 00:33N 39°17' E 013°45'1716.9
2015-Jul-01 23:33N 39°33' E 013°50'1716.9
2015-Jul-01 22:34N 39°49' E 013°55'1717.0
2015-Jul-01 21:33N 40°06' E 013°59'1717.0
2015-Jul-01 20:34N 40°23' E 014°04'1717.0
2015-Jul-01 19:33N 40°39' E 014°11'12 1.7
2015-Jul-01 12:25N 40°50' E 014°16'0 0.0
2015-Jul-01 11:31N 40°50' E 014°16'0 0.0
2015-Jul-01 10:28N 40°50' E 014°16'0 0.0
2015-Jul-01 09:25N 40°50' E 014°16'1 0.1
2015-Jul-01 04:32N 40°50' E 014°16'1414.5
2015-Jul-01 03:33N 40°37' E 014°10'1717.5
2015-Jul-01 02:33N 40°20' E 014°03'1717.3
2015-Jul-01 01:33N 40°03' E 013°58'1717.0
2015-Jul-01 00:33N 39°47' E 013°53'1717.3
2015-Jun-30 23:33N 39°30' E 013°48'3617.0
2015-Jun-30 21:27N 38°55' E 013°40'1517.4
2015-Jun-30 20:33N 38°40' E 013°35'1817.6
2015-Jun-30 19:33N 38°23' E 013°29'1616.1
2015-Jun-30 18:33N 38°07' E 013°23'1 1.3
2015-Jun-30 17:31N 38°08' E 013°22'0 0.0
2015-Jun-30 16:31N 38°08' E 013°22'0 0.0
2015-Jun-30 15:31N 38°08' E 013°22'0 0.0
2015-Jun-30 14:31N 38°08' E 013°22'0 0.0
2015-Jun-30 13:31N 38°08' E 013°22'0 0.0
2015-Jun-30 12:22N 38°08' E 013°22'0 0.0
2015-Jun-30 11:22N 38°08' E 013°22'0 0.0
2015-Jun-30 10:25N 38°08' E 013°22'0 0.0
2015-Jun-30 09:25N 38°08' E 013°22'0 0.0
2015-Jun-30 08:10N 38°08' E 013°22'0 0.0
2015-Jun-30 07:28N 38°08' E 013°22'0 0.0
2015-Jun-30 06:28N 38°08' E 013°22'0 0.0
2015-Jun-30 05:28N 38°08' E 013°22'2 1.7
2015-Jun-30 04:33N 38°08' E 013°24'1514.9
2015-Jun-30 03:33N 38°22' E 013°28'1716.5
2015-Jun-30 02:33N 38°38' E 013°34'3416.9
2015-Jun-30 00:33N 39°11' E 013°44'1717.5
2015-Jun-29 23:34N 39°28' E 013°49'1717.3
2015-Jun-29 22:33N 39°45' E 013°53'1717.5
2015-Jun-29 21:33N 40°02' E 013°58'1817.9
2015-Jun-29 20:34N 40°20' E 014°04'1817.5
2015-Jun-29 19:33N 40°37' E 014°09'15 1.0
2015-Jun-29 04:24N 40°50' E 014°16'1113.0
2015-Jun-29 03:33N 40°40' E 014°12'1717.2
2015-Jun-29 02:33N 40°24' E 014°04'1716.9
2015-Jun-29 01:33N 40°07' E 013°59'5217.0
2015-Jun-28 22:29N 39°16' E 013°45'1617.3
2015-Jun-28 21:34N 39°00' E 013°40'1817.6
2015-Jun-28 20:33N 38°43' E 013°36'1817.7
2015-Jun-28 19:33N 38°26' E 013°30'1717.4
2015-Jun-28 18:33N 38°09' E 013°26'3 3.0
2015-Jun-28 17:32N 38°08' E 013°22'0 0.0
2015-Jun-28 16:29N 38°08' E 013°22'0 0.0
2015-Jun-28 15:32N 38°08' E 013°22'0 0.0
2015-Jun-28 14:32N 38°08' E 013°22'0 0.0
2015-Jun-28 13:32N 38°08' E 013°22'0 0.0
2015-Jun-28 12:32N 38°08' E 013°22'0 0.0
2015-Jun-28 11:32N 38°08' E 013°22'0 0.0
2015-Jun-28 10:32N 38°08' E 013°22'0 0.0
2015-Jun-28 09:32N 38°08' E 013°22'0 0.0
2015-Jun-28 08:32N 38°08' E 013°22'0 0.0
2015-Jun-28 07:32N 38°08' E 013°22'0 0.0
2015-Jun-28 06:32N 38°08' E 013°22'0 0.0
2015-Jun-28 05:32N 38°08' E 013°22'1 1.4
2015-Jun-28 04:33N 38°07' E 013°23'1615.8
2015-Jun-28 03:34N 38°23' E 013°28'1716.5
2015-Jun-28 02:34N 38°39' E 013°33'3416.9
2015-Jun-28 00:33N 39°12' E 013°42'1717.0
2015-Jun-27 23:34N 39°28' E 013°47'1717.0
2015-Jun-27 22:33N 39°45' E 013°53'1717.2
2015-Jun-27 21:33N 40°01' E 013°58'1717.2
2015-Jun-27 20:34N 40°18' E 014°03'1717.0
2015-Jun-27 19:34N 40°35' E 014°07'1716.6
2015-Jun-27 18:33N 40°50' E 014°17'69 3.7
2015-Jun-27 00:06N 39°43' E 013°53'917.0
2015-Jun-26 23:33N 39°34' E 013°50'1817.0
2015-Jun-26 22:30N 39°17' E 013°45'3717.1
2015-Jun-26 20:21N 38°41' E 013°35'1417.3
2015-Jun-26 19:33N 38°27' E 013°31'1716.8
2015-Jun-26 18:33N 38°11' E 013°26'4 4.1
2015-Jun-26 17:28N 38°08' E 013°22'0 0.0
2015-Jun-26 16:31N 38°08' E 013°22'0 0.0
2015-Jun-26 15:31N 38°08' E 013°22'0 0.0
2015-Jun-26 14:31N 38°08' E 013°22'0 0.0
2015-Jun-26 13:31N 38°08' E 013°22'0 0.0
2015-Jun-26 12:31N 38°08' E 013°22'0 0.0
2015-Jun-26 11:31N 38°08' E 013°22'0 0.0
2015-Jun-26 10:31N 38°08' E 013°22'0 0.0
2015-Jun-26 09:31N 38°08' E 013°22'0 0.0
2015-Jun-26 08:31N 38°08' E 013°22'0 0.0
2015-Jun-26 07:31N 38°08' E 013°22'0 0.0
2015-Jun-26 06:31N 38°08' E 013°22'0 0.0
2015-Jun-26 05:33N 38°08' E 013°22'3 3.4
2015-Jun-26 04:34N 38°11' E 013°25'1716.7
2015-Jun-26 03:33N 38°27' E 013°30'1716.5
2015-Jun-26 02:33N 38°43' E 013°35'3516.6
2015-Jun-26 00:26N 39°17' E 013°45'5217.0
2015-Jun-25 21:25N 40°08' E 013°60'1517.8
2015-Jun-25 20:33N 40°22' E 014°04'1717.4
2015-Jun-25 19:33N 40°39' E 014°11'8 0.5
2015-Jun-25 04:33N 40°46' E 014°16'1616.0
2015-Jun-25 03:33N 40°32' E 014°07'1615.6
2015-Jun-25 02:33N 40°17' E 014°02'9916.4
2015-Jun-24 20:33N 38°40' E 013°35'1717.3
2015-Jun-24 19:33N 38°23' E 013°30'1515.1
2015-Jun-24 18:33N 38°09' E 013°25'3 2.8
2015-Jun-24 17:33N 38°08' E 013°22'0 0.0
2015-Jun-24 16:33N 38°08' E 013°22'0 0.0
2015-Jun-24 15:33N 38°08' E 013°22'0 0.0
2015-Jun-24 14:33N 38°08' E 013°22'0 0.0
2015-Jun-24 13:33N 38°08' E 013°22'0 0.0
2015-Jun-24 12:33N 38°08' E 013°22'0 0.0
2015-Jun-24 11:33N 38°08' E 013°22'0 0.0
2015-Jun-24 10:33N 38°08' E 013°22'0 0.0
2015-Jun-24 09:33N 38°08' E 013°22'0 0.0
2015-Jun-24 08:33N 38°08' E 013°22'0 0.0
2015-Jun-24 07:33N 38°08' E 013°22'0 0.0
2015-Jun-24 06:33N 38°08' E 013°22'0 0.0
2015-Jun-24 05:33N 38°08' E 013°22'7 7.3
2015-Jun-24 04:34N 38°15' E 013°26'1616.5
2015-Jun-24 03:34N 38°31' E 013°31'1616.1
2015-Jun-24 02:34N 38°46' E 013°36'1616.2
2015-Jun-24 01:34N 39°02' E 013°40'1616.2
2015-Jun-24 00:34N 39°18' E 013°44'1616.2
2015-Jun-23 23:33N 39°34' E 013°48'1615.7
2015-Jun-23 22:34N 39°49' E 013°54'1616.3
2015-Jun-23 21:34N 40°05' E 013°59'1616.5
2015-Jun-23 20:34N 40°21' E 014°04'1716.6
2015-Jun-23 19:34N 40°37' E 014°09'816.5
2015-Jun-23 19:06N 40°44' E 014°13'143 6.1
2015-Jun-22 19:33N 38°25' E 013°30'1716.9
2015-Jun-22 18:33N 38°08' E 013°25'3 2.5
2015-Jun-22 17:32N 38°08' E 013°22'  

Dump ship's entire track history